sensor_id;sensor_type;location;lat;lon;timestamp;P1;durP1;ratioP1;P2;durP2;ratioP2
16922;SDS011;8578;50.938;13.556;2023-08-01T00:02:22;2.20;;;1.80;;
16922;SDS011;8578;50.938;13.556;2023-08-01T00:04:51;3.37;;;2.13;;
16922;SDS011;8578;50.938;13.556;2023-08-01T00:07:18;5.43;;;2.10;;
16922;SDS011;8578;50.938;13.556;2023-08-01T00:09:46;5.20;;;2.43;;
16922;SDS011;8578;50.938;13.556;2023-08-01T00:12:14;3.60;;;2.10;;
16922;SDS011;8578;50.938;13.556;2023-08-01T00:14:41;5.73;;;2.27;;
16922;SDS011;8578;50.938;13.556;2023-08-01T00:17:10;3.37;;;1.90;;
16922;SDS011;8578;50.938;13.556;2023-08-01T00:19:38;5.03;;;2.00;;
16922;SDS011;8578;50.938;13.556;2023-08-01T00:22:07;4.43;;;2.10;;
16922;SDS011;8578;50.938;13.556;2023-08-01T00:24:35;5.50;;;2.17;;
16922;SDS011;8578;50.938;13.556;2023-08-01T00:27:02;5.93;;;1.93;;
16922;SDS011;8578;50.938;13.556;2023-08-01T00:29:30;5.23;;;2.20;;
16922;SDS011;8578;50.938;13.556;2023-08-01T00:31:58;4.43;;;2.07;;
16922;SDS011;8578;50.938;13.556;2023-08-01T00:34:26;4.40;;;2.27;;
16922;SDS011;8578;50.938;13.556;2023-08-01T00:36:53;4.83;;;2.03;;
16922;SDS011;8578;50.938;13.556;2023-08-01T00:39:22;4.50;;;2.10;;
16922;SDS011;8578;50.938;13.556;2023-08-01T00:41:50;2.67;;;1.67;;
16922;SDS011;8578;50.938;13.556;2023-08-01T00:44:18;5.83;;;2.03;;
16922;SDS011;8578;50.938;13.556;2023-08-01T00:46:45;3.47;;;1.93;;
16922;SDS011;8578;50.938;13.556;2023-08-01T00:49:14;2.17;;;1.80;;
16922;SDS011;8578;50.938;13.556;2023-08-01T00:51:42;3.80;;;2.30;;
16922;SDS011;8578;50.938;13.556;2023-08-01T00:54:11;3.73;;;2.00;;
16922;SDS011;8578;50.938;13.556;2023-08-01T00:56:41;4.20;;;2.07;;
16922;SDS011;8578;50.938;13.556;2023-08-01T00:59:08;3.40;;;2.00;;
16922;SDS011;8578;50.938;13.556;2023-08-01T01:01:36;3.17;;;1.90;;
16922;SDS011;8578;50.938;13.556;2023-08-01T01:04:05;3.90;;;2.00;;
16922;SDS011;8578;50.938;13.556;2023-08-01T01:06:34;3.77;;;2.07;;
16922;SDS011;8578;50.938;13.556;2023-08-01T01:09:02;4.40;;;2.17;;
16922;SDS011;8578;50.938;13.556;2023-08-01T01:11:31;4.43;;;2.07;;
16922;SDS011;8578;50.938;13.556;2023-08-01T01:14:00;4.13;;;1.97;;
16922;SDS011;8578;50.938;13.556;2023-08-01T01:16:27;4.93;;;2.50;;
16922;SDS011;8578;50.938;13.556;2023-08-01T01:18:55;3.67;;;2.37;;
16922;SDS011;8578;50.938;13.556;2023-08-01T01:21:24;4.87;;;2.40;;
16922;SDS011;8578;50.938;13.556;2023-08-01T01:23:52;3.20;;;2.30;;
16922;SDS011;8578;50.938;13.556;2023-08-01T01:26:19;6.03;;;2.30;;
16922;SDS011;8578;50.938;13.556;2023-08-01T01:28:48;4.27;;;2.23;;
16922;SDS011;8578;50.938;13.556;2023-08-01T01:31:16;3.57;;;2.33;;
16922;SDS011;8578;50.938;13.556;2023-08-01T01:33:44;5.57;;;2.47;;
16922;SDS011;8578;50.938;13.556;2023-08-01T01:36:12;3.33;;;2.13;;
16922;SDS011;8578;50.938;13.556;2023-08-01T01:38:41;3.80;;;2.43;;
16922;SDS011;8578;50.938;13.556;2023-08-01T01:41:08;4.87;;;2.17;;
16922;SDS011;8578;50.938;13.556;2023-08-01T01:43:37;3.13;;;2.33;;
16922;SDS011;8578;50.938;13.556;2023-08-01T01:46:05;4.17;;;2.30;;
16922;SDS011;8578;50.938;13.556;2023-08-01T01:48:32;4.63;;;2.37;;
16922;SDS011;8578;50.938;13.556;2023-08-01T01:51:00;5.53;;;2.30;;
16922;SDS011;8578;50.938;13.556;2023-08-01T01:53:29;5.87;;;2.57;;
16922;SDS011;8578;50.938;13.556;2023-08-01T01:55:58;4.97;;;2.20;;
16922;SDS011;8578;50.938;13.556;2023-08-01T01:58:26;4.60;;;2.17;;
16922;SDS011;8578;50.938;13.556;2023-08-01T02:00:54;4.27;;;2.27;;
16922;SDS011;8578;50.938;13.556;2023-08-01T02:03:22;3.13;;;1.93;;
16922;SDS011;8578;50.938;13.556;2023-08-01T02:05:49;3.20;;;2.00;;
16922;SDS011;8578;50.938;13.556;2023-08-01T02:08:18;3.67;;;2.10;;
16922;SDS011;8578;50.938;13.556;2023-08-01T02:10:45;3.60;;;2.30;;
16922;SDS011;8578;50.938;13.556;2023-08-01T02:13:16;3.97;;;2.60;;
16922;SDS011;8578;50.938;13.556;2023-08-01T02:15:44;4.60;;;2.40;;
16922;SDS011;8578;50.938;13.556;2023-08-01T02:18:11;5.50;;;2.20;;
16922;SDS011;8578;50.938;13.556;2023-08-01T02:20:39;2.77;;;2.33;;
16922;SDS011;8578;50.938;13.556;2023-08-01T02:23:07;4.73;;;2.53;;
16922;SDS011;8578;50.938;13.556;2023-08-01T02:25:37;3.43;;;2.30;;
16922;SDS011;8578;50.938;13.556;2023-08-01T02:28:05;4.30;;;2.20;;
16922;SDS011;8578;50.938;13.556;2023-08-01T02:30:35;3.27;;;2.20;;
16922;SDS011;8578;50.938;13.556;2023-08-01T02:33:03;3.13;;;2.10;;
16922;SDS011;8578;50.938;13.556;2023-08-01T02:35:32;3.20;;;2.23;;
16922;SDS011;8578;50.938;13.556;2023-08-01T02:37:59;4.13;;;2.13;;
16922;SDS011;8578;50.938;13.556;2023-08-01T02:40:29;2.60;;;1.70;;
16922;SDS011;8578;50.938;13.556;2023-08-01T02:42:56;3.30;;;2.10;;
16922;SDS011;8578;50.938;13.556;2023-08-01T02:45:24;4.67;;;2.40;;
16922;SDS011;8578;50.938;13.556;2023-08-01T02:47:53;3.40;;;2.00;;
16922;SDS011;8578;50.938;13.556;2023-08-01T02:50:24;3.70;;;2.20;;
16922;SDS011;8578;50.938;13.556;2023-08-01T02:52:52;3.03;;;2.00;;
16922;SDS011;8578;50.938;13.556;2023-08-01T02:55:19;3.10;;;1.70;;
16922;SDS011;8578;50.938;13.556;2023-08-01T02:57:47;5.33;;;2.40;;
16922;SDS011;8578;50.938;13.556;2023-08-01T03:00:24;3.10;;;2.03;;
16922;SDS011;8578;50.938;13.556;2023-08-01T03:03:00;4.20;;;2.00;;
16922;SDS011;8578;50.938;13.556;2023-08-01T03:05:29;3.43;;;1.87;;
16922;SDS011;8578;50.938;13.556;2023-08-01T03:07:58;2.60;;;1.90;;
16922;SDS011;8578;50.938;13.556;2023-08-01T03:10:25;1.87;;;1.53;;
16922;SDS011;8578;50.938;13.556;2023-08-01T03:13:02;4.93;;;1.83;;
16922;SDS011;8578;50.938;13.556;2023-08-01T03:15:30;3.40;;;1.63;;
16922;SDS011;8578;50.938;13.556;2023-08-01T03:17:58;2.97;;;1.77;;
16922;SDS011;8578;50.938;13.556;2023-08-01T03:20:28;3.63;;;1.83;;
16922;SDS011;8578;50.938;13.556;2023-08-01T03:22:57;2.97;;;1.50;;
16922;SDS011;8578;50.938;13.556;2023-08-01T03:25:24;2.67;;;1.20;;
16922;SDS011;8578;50.938;13.556;2023-08-01T03:27:54;2.67;;;1.40;;
16922;SDS011;8578;50.938;13.556;2023-08-01T03:30:21;2.77;;;1.60;;
16922;SDS011;8578;50.938;13.556;2023-08-01T03:32:49;2.40;;;1.50;;
16922;SDS011;8578;50.938;13.556;2023-08-01T03:35:16;3.03;;;1.60;;
16922;SDS011;8578;50.938;13.556;2023-08-01T03:37:45;2.27;;;1.30;;
16922;SDS011;8578;50.938;13.556;2023-08-01T03:40:13;3.50;;;1.40;;
16922;SDS011;8578;50.938;13.556;2023-08-01T03:42:41;2.10;;;1.30;;
16922;SDS011;8578;50.938;13.556;2023-08-01T03:45:09;2.30;;;1.50;;
16922;SDS011;8578;50.938;13.556;2023-08-01T03:47:37;2.70;;;1.33;;
16922;SDS011;8578;50.938;13.556;2023-08-01T03:50:05;2.20;;;1.40;;
16922;SDS011;8578;50.938;13.556;2023-08-01T03:52:33;2.07;;;1.40;;
16922;SDS011;8578;50.938;13.556;2023-08-01T03:55:02;2.27;;;1.53;;
16922;SDS011;8578;50.938;13.556;2023-08-01T03:57:30;2.00;;;1.20;;
16922;SDS011;8578;50.938;13.556;2023-08-01T04:00:01;3.00;;;1.30;;
16922;SDS011;8578;50.938;13.556;2023-08-01T04:02:37;2.57;;;1.03;;
16922;SDS011;8578;50.938;13.556;2023-08-01T04:05:05;1.40;;;1.00;;
16922;SDS011;8578;50.938;13.556;2023-08-01T04:07:33;2.17;;;1.10;;
16922;SDS011;8578;50.938;13.556;2023-08-01T04:10:02;2.77;;;1.20;;
16922;SDS011;8578;50.938;13.556;2023-08-01T04:12:30;2.17;;;1.10;;
16922;SDS011;8578;50.938;13.556;2023-08-01T04:14:58;2.83;;;0.97;;
16922;SDS011;8578;50.938;13.556;2023-08-01T04:17:26;1.10;;;0.90;;
16922;SDS011;8578;50.938;13.556;2023-08-01T04:19:56;1.60;;;1.00;;
16922;SDS011;8578;50.938;13.556;2023-08-01T04:22:23;1.40;;;1.10;;
16922;SDS011;8578;50.938;13.556;2023-08-01T04:24:52;1.53;;;0.90;;
16922;SDS011;8578;50.938;13.556;2023-08-01T04:27:21;2.20;;;1.37;;
16922;SDS011;8578;50.938;13.556;2023-08-01T04:29:48;1.53;;;1.10;;
16922;SDS011;8578;50.938;13.556;2023-08-01T04:32:16;1.90;;;1.30;;
16922;SDS011;8578;50.938;13.556;2023-08-01T04:34:44;1.20;;;1.10;;
16922;SDS011;8578;50.938;13.556;2023-08-01T04:37:11;1.73;;;1.23;;
16922;SDS011;8578;50.938;13.556;2023-08-01T04:39:40;1.53;;;1.40;;
16922;SDS011;8578;50.938;13.556;2023-08-01T04:42:08;2.10;;;1.27;;
16922;SDS011;8578;50.938;13.556;2023-08-01T04:44:37;1.53;;;1.37;;
16922;SDS011;8578;50.938;13.556;2023-08-01T04:47:05;2.23;;;1.57;;
16922;SDS011;8578;50.938;13.556;2023-08-01T04:49:32;2.27;;;1.47;;
16922;SDS011;8578;50.938;13.556;2023-08-01T04:52:01;3.10;;;1.60;;
16922;SDS011;8578;50.938;13.556;2023-08-01T04:54:32;2.27;;;1.40;;
16922;SDS011;8578;50.938;13.556;2023-08-01T04:57:01;2.40;;;1.67;;
16922;SDS011;8578;50.938;13.556;2023-08-01T04:59:28;2.47;;;1.60;;
16922;SDS011;8578;50.938;13.556;2023-08-01T05:01:57;1.73;;;1.40;;
16922;SDS011;8578;50.938;13.556;2023-08-01T05:04:26;1.63;;;1.30;;
16922;SDS011;8578;50.938;13.556;2023-08-01T05:06:53;1.97;;;1.23;;
16922;SDS011;8578;50.938;13.556;2023-08-01T05:09:21;1.93;;;1.37;;
16922;SDS011;8578;50.938;13.556;2023-08-01T05:11:48;1.47;;;1.37;;
16922;SDS011;8578;50.938;13.556;2023-08-01T05:14:16;2.27;;;1.43;;
16922;SDS011;8578;50.938;13.556;2023-08-01T05:16:43;2.33;;;1.50;;
16922;SDS011;8578;50.938;13.556;2023-08-01T05:19:13;2.20;;;1.20;;
16922;SDS011;8578;50.938;13.556;2023-08-01T05:21:41;2.67;;;1.33;;
16922;SDS011;8578;50.938;13.556;2023-08-01T05:24:08;1.10;;;1.00;;
16922;SDS011;8578;50.938;13.556;2023-08-01T05:26:36;1.60;;;1.13;;
16922;SDS011;8578;50.938;13.556;2023-08-01T05:29:04;1.37;;;1.27;;
16922;SDS011;8578;50.938;13.556;2023-08-01T05:31:31;1.77;;;1.03;;
16922;SDS011;8578;50.938;13.556;2023-08-01T05:33:59;2.37;;;0.87;;
16922;SDS011;8578;50.938;13.556;2023-08-01T05:36:28;1.33;;;0.90;;
16922;SDS011;8578;50.938;13.556;2023-08-01T05:38:55;2.37;;;1.00;;
16922;SDS011;8578;50.938;13.556;2023-08-01T05:41:23;1.10;;;1.00;;
16922;SDS011;8578;50.938;13.556;2023-08-01T05:43:51;1.27;;;1.00;;
16922;SDS011;8578;50.938;13.556;2023-08-01T05:46:19;0.87;;;0.83;;
16922;SDS011;8578;50.938;13.556;2023-08-01T05:48:46;0.97;;;0.93;;
16922;SDS011;8578;50.938;13.556;2023-08-01T05:51:14;1.93;;;1.03;;
16922;SDS011;8578;50.938;13.556;2023-08-01T05:53:43;1.30;;;0.90;;
16922;SDS011;8578;50.938;13.556;2023-08-01T05:56:11;0.80;;;0.80;;
16922;SDS011;8578;50.938;13.556;2023-08-01T05:58:38;0.93;;;0.77;;
16922;SDS011;8578;50.938;13.556;2023-08-01T06:01:06;1.23;;;0.67;;
16922;SDS011;8578;50.938;13.556;2023-08-01T06:03:35;1.10;;;0.60;;
16922;SDS011;8578;50.938;13.556;2023-08-01T06:06:03;1.10;;;0.60;;
16922;SDS011;8578;50.938;13.556;2023-08-01T06:08:30;0.97;;;0.50;;
16922;SDS011;8578;50.938;13.556;2023-08-01T06:10:59;0.40;;;0.40;;
16922;SDS011;8578;50.938;13.556;2023-08-01T06:13:28;0.80;;;0.70;;
16922;SDS011;8578;50.938;13.556;2023-08-01T06:15:56;0.50;;;0.50;;
16922;SDS011;8578;50.938;13.556;2023-08-01T06:18:24;0.73;;;0.70;;
16922;SDS011;8578;50.938;13.556;2023-08-01T06:20:53;0.83;;;0.63;;
16922;SDS011;8578;50.938;13.556;2023-08-01T06:23:20;1.07;;;0.50;;
16922;SDS011;8578;50.938;13.556;2023-08-01T06:25:48;0.60;;;0.60;;
16922;SDS011;8578;50.938;13.556;2023-08-01T06:28:17;0.60;;;0.60;;
16922;SDS011;8578;50.938;13.556;2023-08-01T06:30:45;0.87;;;0.50;;
16922;SDS011;8578;50.938;13.556;2023-08-01T06:33:12;1.40;;;0.80;;
16922;SDS011;8578;50.938;13.556;2023-08-01T06:35:40;0.60;;;0.50;;
16922;SDS011;8578;50.938;13.556;2023-08-01T06:38:07;0.83;;;0.50;;
16922;SDS011;8578;50.938;13.556;2023-08-01T06:40:35;0.87;;;0.60;;
16922;SDS011;8578;50.938;13.556;2023-08-01T06:43:02;0.87;;;0.50;;
16922;SDS011;8578;50.938;13.556;2023-08-01T06:45:31;1.10;;;0.60;;
16922;SDS011;8578;50.938;13.556;2023-08-01T06:47:59;0.77;;;0.77;;
16922;SDS011;8578;50.938;13.556;2023-08-01T06:50:27;2.87;;;0.80;;
16922;SDS011;8578;50.938;13.556;2023-08-01T06:52:54;0.77;;;0.50;;
16922;SDS011;8578;50.938;13.556;2023-08-01T06:55:22;1.17;;;0.70;;
16922;SDS011;8578;50.938;13.556;2023-08-01T06:57:49;1.20;;;0.60;;
16922;SDS011;8578;50.938;13.556;2023-08-01T07:00:17;1.70;;;0.80;;
16922;SDS011;8578;50.938;13.556;2023-08-01T07:02:46;1.47;;;0.80;;
16922;SDS011;8578;50.938;13.556;2023-08-01T07:05:15;2.17;;;0.70;;
16922;SDS011;8578;50.938;13.556;2023-08-01T07:07:43;1.83;;;0.83;;
16922;SDS011;8578;50.938;13.556;2023-08-01T07:10:11;1.20;;;0.87;;
16922;SDS011;8578;50.938;13.556;2023-08-01T07:12:39;0.90;;;0.73;;
16922;SDS011;8578;50.938;13.556;2023-08-01T07:15:07;0.90;;;0.53;;
16922;SDS011;8578;50.938;13.556;2023-08-01T07:17:35;1.00;;;0.77;;
16922;SDS011;8578;50.938;13.556;2023-08-01T07:20:04;1.63;;;0.90;;
16922;SDS011;8578;50.938;13.556;2023-08-01T07:22:32;1.60;;;0.80;;
16922;SDS011;8578;50.938;13.556;2023-08-01T07:25:00;1.87;;;0.73;;
16922;SDS011;8578;50.938;13.556;2023-08-01T07:27:27;1.23;;;0.80;;
16922;SDS011;8578;50.938;13.556;2023-08-01T07:29:55;2.03;;;0.90;;
16922;SDS011;8578;50.938;13.556;2023-08-01T07:32:22;0.90;;;0.80;;
16922;SDS011;8578;50.938;13.556;2023-08-01T07:34:54;1.13;;;0.80;;
16922;SDS011;8578;50.938;13.556;2023-08-01T07:37:23;2.00;;;0.70;;
16922;SDS011;8578;50.938;13.556;2023-08-01T07:39:51;1.23;;;0.70;;
16922;SDS011;8578;50.938;13.556;2023-08-01T07:42:18;2.80;;;0.60;;
16922;SDS011;8578;50.938;13.556;2023-08-01T07:44:46;0.83;;;0.70;;
16922;SDS011;8578;50.938;13.556;2023-08-01T07:47:13;2.23;;;0.67;;
16922;SDS011;8578;50.938;13.556;2023-08-01T07:49:41;0.60;;;0.60;;
16922;SDS011;8578;50.938;13.556;2023-08-01T07:52:09;1.00;;;0.60;;
16922;SDS011;8578;50.938;13.556;2023-08-01T07:54:39;0.70;;;0.70;;
16922;SDS011;8578;50.938;13.556;2023-08-01T07:57:07;0.87;;;0.53;;
16922;SDS011;8578;50.938;13.556;2023-08-01T07:59:34;1.30;;;0.90;;
16922;SDS011;8578;50.938;13.556;2023-08-01T08:02:02;1.23;;;0.67;;
16922;SDS011;8578;50.938;13.556;2023-08-01T08:04:30;1.13;;;0.80;;
16922;SDS011;8578;50.938;13.556;2023-08-01T08:06:59;0.63;;;0.50;;
16922;SDS011;8578;50.938;13.556;2023-08-01T08:09:28;1.27;;;0.70;;
16922;SDS011;8578;50.938;13.556;2023-08-01T08:11:57;2.30;;;0.50;;
16922;SDS011;8578;50.938;13.556;2023-08-01T08:14:24;1.20;;;0.60;;
16922;SDS011;8578;50.938;13.556;2023-08-01T08:16:52;3.97;;;0.60;;
16922;SDS011;8578;50.938;13.556;2023-08-01T08:19:20;0.97;;;0.60;;
16922;SDS011;8578;50.938;13.556;2023-08-01T08:21:47;0.60;;;0.50;;
16922;SDS011;8578;50.938;13.556;2023-08-01T08:24:15;4.53;;;0.70;;
16922;SDS011;8578;50.938;13.556;2023-08-01T08:26:42;0.90;;;0.50;;
16922;SDS011;8578;50.938;13.556;2023-08-01T08:29:12;0.63;;;0.50;;
16922;SDS011;8578;50.938;13.556;2023-08-01T08:31:40;0.70;;;0.47;;
16922;SDS011;8578;50.938;13.556;2023-08-01T08:34:07;0.90;;;0.60;;
16922;SDS011;8578;50.938;13.556;2023-08-01T08:36:35;0.70;;;0.50;;
16922;SDS011;8578;50.938;13.556;2023-08-01T08:39:02;1.17;;;0.70;;
16922;SDS011;8578;50.938;13.556;2023-08-01T08:41:32;1.67;;;0.60;;
16922;SDS011;8578;50.938;13.556;2023-08-01T08:44:02;0.77;;;0.53;;
16922;SDS011;8578;50.938;13.556;2023-08-01T08:46:34;1.43;;;0.50;;
16922;SDS011;8578;50.938;13.556;2023-08-01T08:49:03;0.97;;;0.60;;
16922;SDS011;8578;50.938;13.556;2023-08-01T08:51:31;2.10;;;0.53;;
16922;SDS011;8578;50.938;13.556;2023-08-01T08:53:59;1.97;;;0.50;;
16922;SDS011;8578;50.938;13.556;2023-08-01T08:56:29;0.70;;;0.60;;
16922;SDS011;8578;50.938;13.556;2023-08-01T08:58:57;1.60;;;0.70;;
16922;SDS011;8578;50.938;13.556;2023-08-01T09:01:26;0.87;;;0.60;;
16922;SDS011;8578;50.938;13.556;2023-08-01T09:03:55;2.37;;;0.60;;
16922;SDS011;8578;50.938;13.556;2023-08-01T09:06:24;1.40;;;0.63;;
16922;SDS011;8578;50.938;13.556;2023-08-01T09:08:54;1.17;;;0.70;;
16922;SDS011;8578;50.938;13.556;2023-08-01T09:11:22;2.13;;;0.70;;
16922;SDS011;8578;50.938;13.556;2023-08-01T09:13:50;1.40;;;0.80;;
16922;SDS011;8578;50.938;13.556;2023-08-01T09:16:18;1.07;;;0.60;;
16922;SDS011;8578;50.938;13.556;2023-08-01T09:18:47;0.70;;;0.60;;
16922;SDS011;8578;50.938;13.556;2023-08-01T09:21:17;1.20;;;0.70;;
16922;SDS011;8578;50.938;13.556;2023-08-01T09:23:44;1.03;;;0.67;;
16922;SDS011;8578;50.938;13.556;2023-08-01T09:26:12;1.27;;;0.50;;
16922;SDS011;8578;50.938;13.556;2023-08-01T09:28:40;0.60;;;0.60;;
16922;SDS011;8578;50.938;13.556;2023-08-01T09:31:09;0.53;;;0.50;;
16922;SDS011;8578;50.938;13.556;2023-08-01T09:33:38;0.60;;;0.40;;
16922;SDS011;8578;50.938;13.556;2023-08-01T09:36:06;0.97;;;0.40;;
16922;SDS011;8578;50.938;13.556;2023-08-01T09:38:36;0.33;;;0.33;;
16922;SDS011;8578;50.938;13.556;2023-08-01T09:41:03;0.80;;;0.57;;
16922;SDS011;8578;50.938;13.556;2023-08-01T09:43:34;0.80;;;0.40;;
16922;SDS011;8578;50.938;13.556;2023-08-01T09:46:03;0.93;;;0.57;;
16922;SDS011;8578;50.938;13.556;2023-08-01T09:48:31;1.27;;;0.47;;
16922;SDS011;8578;50.938;13.556;2023-08-01T09:51:05;0.70;;;0.33;;
16922;SDS011;8578;50.938;13.556;2023-08-01T09:53:33;0.60;;;0.40;;
16922;SDS011;8578;50.938;13.556;2023-08-01T09:56:02;0.83;;;0.50;;
16922;SDS011;8578;50.938;13.556;2023-08-01T09:58:32;0.63;;;0.50;;
16922;SDS011;8578;50.938;13.556;2023-08-01T10:01:00;1.23;;;0.40;;
16922;SDS011;8578;50.938;13.556;2023-08-01T10:03:28;0.40;;;0.40;;
16922;SDS011;8578;50.938;13.556;2023-08-01T10:05:57;0.57;;;0.50;;
16922;SDS011;8578;50.938;13.556;2023-08-01T10:08:25;1.73;;;0.40;;
16922;SDS011;8578;50.938;13.556;2023-08-01T10:10:54;2.53;;;0.60;;
16922;SDS011;8578;50.938;13.556;2023-08-01T10:13:25;0.70;;;0.40;;
16922;SDS011;8578;50.938;13.556;2023-08-01T10:15:54;0.80;;;0.50;;
16922;SDS011;8578;50.938;13.556;2023-08-01T10:18:22;2.87;;;0.50;;
16922;SDS011;8578;50.938;13.556;2023-08-01T10:20:50;0.57;;;0.40;;
16922;SDS011;8578;50.938;13.556;2023-08-01T10:23:17;0.50;;;0.40;;
16922;SDS011;8578;50.938;13.556;2023-08-01T10:25:45;2.10;;;0.43;;
16922;SDS011;8578;50.938;13.556;2023-08-01T10:28:12;1.40;;;0.50;;
16922;SDS011;8578;50.938;13.556;2023-08-01T10:30:42;0.63;;;0.60;;
16922;SDS011;8578;50.938;13.556;2023-08-01T10:33:09;1.27;;;0.60;;
16922;SDS011;8578;50.938;13.556;2023-08-01T10:35:39;0.60;;;0.40;;
16922;SDS011;8578;50.938;13.556;2023-08-01T10:38:07;0.70;;;0.40;;
16922;SDS011;8578;50.938;13.556;2023-08-01T10:40:36;2.37;;;0.40;;
16922;SDS011;8578;50.938;13.556;2023-08-01T10:43:04;0.90;;;0.50;;
16922;SDS011;8578;50.938;13.556;2023-08-01T10:45:32;0.40;;;0.40;;
16922;SDS011;8578;50.938;13.556;2023-08-01T10:48:07;0.50;;;0.40;;
16922;SDS011;8578;50.938;13.556;2023-08-01T10:50:36;0.80;;;0.40;;
16922;SDS011;8578;50.938;13.556;2023-08-01T10:53:04;0.47;;;0.37;;
16922;SDS011;8578;50.938;13.556;2023-08-01T10:55:42;0.70;;;0.43;;
16922;SDS011;8578;50.938;13.556;2023-08-01T10:58:10;0.57;;;0.40;;
16922;SDS011;8578;50.938;13.556;2023-08-01T11:00:38;0.60;;;0.40;;
16922;SDS011;8578;50.938;13.556;2023-08-01T11:03:07;1.07;;;0.50;;
16922;SDS011;8578;50.938;13.556;2023-08-01T11:05:35;0.40;;;0.40;;
16922;SDS011;8578;50.938;13.556;2023-08-01T11:08:03;0.33;;;0.30;;
16922;SDS011;8578;50.938;13.556;2023-08-01T11:10:33;0.87;;;0.50;;
16922;SDS011;8578;50.938;13.556;2023-08-01T11:13:00;0.77;;;0.40;;
16922;SDS011;8578;50.938;13.556;2023-08-01T11:15:29;0.47;;;0.30;;
16922;SDS011;8578;50.938;13.556;2023-08-01T11:17:56;1.77;;;0.50;;
16922;SDS011;8578;50.938;13.556;2023-08-01T11:20:25;0.30;;;0.30;;
16922;SDS011;8578;50.938;13.556;2023-08-01T11:22:55;0.93;;;0.30;;
16922;SDS011;8578;50.938;13.556;2023-08-01T11:25:31;1.40;;;0.50;;
16922;SDS011;8578;50.938;13.556;2023-08-01T11:28:01;0.90;;;0.50;;
16922;SDS011;8578;50.938;13.556;2023-08-01T11:30:30;0.57;;;0.50;;
16922;SDS011;8578;50.938;13.556;2023-08-01T11:32:57;2.07;;;0.60;;
16922;SDS011;8578;50.938;13.556;2023-08-01T11:35:28;0.83;;;0.70;;
16922;SDS011;8578;50.938;13.556;2023-08-01T11:37:55;1.63;;;0.70;;
16922;SDS011;8578;50.938;13.556;2023-08-01T11:40:24;0.80;;;0.60;;
16922;SDS011;8578;50.938;13.556;2023-08-01T11:42:56;0.67;;;0.60;;
16922;SDS011;8578;50.938;13.556;2023-08-01T11:45:24;1.53;;;0.80;;
16922;SDS011;8578;50.938;13.556;2023-08-01T11:47:51;1.27;;;0.70;;
16922;SDS011;8578;50.938;13.556;2023-08-01T11:50:22;0.87;;;0.67;;
16922;SDS011;8578;50.938;13.556;2023-08-01T11:52:57;3.60;;;0.80;;
16922;SDS011;8578;50.938;13.556;2023-08-01T11:55:25;2.57;;;0.93;;
16922;SDS011;8578;50.938;13.556;2023-08-01T11:57:54;0.97;;;0.70;;
16922;SDS011;8578;50.938;13.556;2023-08-01T12:00:23;0.80;;;0.70;;
16922;SDS011;8578;50.938;13.556;2023-08-01T12:02:51;2.47;;;1.00;;
16922;SDS011;8578;50.938;13.556;2023-08-01T12:05:22;6.87;;;0.93;;
16922;SDS011;8578;50.938;13.556;2023-08-01T12:07:51;2.00;;;0.80;;
16922;SDS011;8578;50.938;13.556;2023-08-01T12:10:20;2.83;;;0.93;;
16922;SDS011;8578;50.938;13.556;2023-08-01T12:12:48;1.37;;;0.70;;
16922;SDS011;8578;50.938;13.556;2023-08-01T12:15:15;1.03;;;0.50;;
16922;SDS011;8578;50.938;13.556;2023-08-01T12:17:43;2.07;;;0.90;;
16922;SDS011;8578;50.938;13.556;2023-08-01T12:20:11;2.97;;;0.60;;
16922;SDS011;8578;50.938;13.556;2023-08-01T12:22:38;0.43;;;0.37;;
16922;SDS011;8578;50.938;13.556;2023-08-01T12:25:06;1.30;;;0.80;;
16922;SDS011;8578;50.938;13.556;2023-08-01T12:27:35;0.73;;;0.50;;
16922;SDS011;8578;50.938;13.556;2023-08-01T12:30:03;1.10;;;0.50;;
16922;SDS011;8578;50.938;13.556;2023-08-01T12:32:31;1.60;;;0.50;;
16922;SDS011;8578;50.938;13.556;2023-08-01T12:34:59;1.47;;;0.70;;
16922;SDS011;8578;50.938;13.556;2023-08-01T12:37:26;1.70;;;0.77;;
16922;SDS011;8578;50.938;13.556;2023-08-01T12:39:55;1.17;;;0.70;;
16922;SDS011;8578;50.938;13.556;2023-08-01T12:42:23;3.10;;;0.60;;
16922;SDS011;8578;50.938;13.556;2023-08-01T12:44:51;2.47;;;0.70;;
16922;SDS011;8578;50.938;13.556;2023-08-01T12:47:19;1.40;;;0.80;;
16922;SDS011;8578;50.938;13.556;2023-08-01T12:49:47;3.10;;;0.60;;
16922;SDS011;8578;50.938;13.556;2023-08-01T12:52:21;3.13;;;0.70;;
16922;SDS011;8578;50.938;13.556;2023-08-01T12:54:49;2.97;;;1.40;;
16922;SDS011;8578;50.938;13.556;2023-08-01T12:57:17;1.10;;;0.83;;
16922;SDS011;8578;50.938;13.556;2023-08-01T12:59:44;2.97;;;0.80;;
16922;SDS011;8578;50.938;13.556;2023-08-01T13:02:13;0.80;;;0.80;;
16922;SDS011;8578;50.938;13.556;2023-08-01T13:04:41;1.30;;;0.93;;
16922;SDS011;8578;50.938;13.556;2023-08-01T13:07:10;1.80;;;1.20;;
16922;SDS011;8578;50.938;13.556;2023-08-01T13:09:37;2.00;;;1.20;;
16922;SDS011;8578;50.938;13.556;2023-08-01T13:12:06;1.63;;;1.10;;
16922;SDS011;8578;50.938;13.556;2023-08-01T13:14:35;2.50;;;1.30;;
16922;SDS011;8578;50.938;13.556;2023-08-01T13:17:03;1.57;;;1.10;;
16922;SDS011;8578;50.938;13.556;2023-08-01T13:19:33;2.27;;;1.53;;
16922;SDS011;8578;50.938;13.556;2023-08-01T13:22:01;1.73;;;1.23;;
16922;SDS011;8578;50.938;13.556;2023-08-01T13:24:29;1.63;;;1.23;;
16922;SDS011;8578;50.938;13.556;2023-08-01T13:26:58;1.70;;;1.20;;
16922;SDS011;8578;50.938;13.556;2023-08-01T13:29:25;2.27;;;1.73;;
16922;SDS011;8578;50.938;13.556;2023-08-01T13:31:53;2.70;;;1.40;;
16922;SDS011;8578;50.938;13.556;2023-08-01T13:34:21;1.77;;;1.20;;
16922;SDS011;8578;50.938;13.556;2023-08-01T13:36:50;1.90;;;1.50;;
16922;SDS011;8578;50.938;13.556;2023-08-01T13:39:18;1.83;;;1.50;;
16922;SDS011;8578;50.938;13.556;2023-08-01T13:41:45;3.30;;;1.37;;
16922;SDS011;8578;50.938;13.556;2023-08-01T13:44:13;1.90;;;1.63;;
16922;SDS011;8578;50.938;13.556;2023-08-01T13:46:40;2.80;;;1.80;;
16922;SDS011;8578;50.938;13.556;2023-08-01T13:49:08;1.83;;;1.67;;
16922;SDS011;8578;50.938;13.556;2023-08-01T13:51:35;2.63;;;1.87;;
16922;SDS011;8578;50.938;13.556;2023-08-01T13:54:04;3.20;;;1.87;;
16922;SDS011;8578;50.938;13.556;2023-08-01T13:56:32;2.53;;;1.80;;
16922;SDS011;8578;50.938;13.556;2023-08-01T13:59:02;2.83;;;2.17;;
16922;SDS011;8578;50.938;13.556;2023-08-01T14:01:29;3.10;;;2.10;;
16922;SDS011;8578;50.938;13.556;2023-08-01T14:03:57;3.03;;;2.17;;
16922;SDS011;8578;50.938;13.556;2023-08-01T14:06:25;2.57;;;2.23;;
16922;SDS011;8578;50.938;13.556;2023-08-01T14:08:53;3.77;;;2.13;;
16922;SDS011;8578;50.938;13.556;2023-08-01T14:11:23;4.80;;;2.67;;
16922;SDS011;8578;50.938;13.556;2023-08-01T14:13:50;4.40;;;2.53;;
16922;SDS011;8578;50.938;13.556;2023-08-01T14:16:18;3.07;;;2.50;;
16922;SDS011;8578;50.938;13.556;2023-08-01T14:18:46;5.20;;;2.77;;
16922;SDS011;8578;50.938;13.556;2023-08-01T14:21:13;5.70;;;2.77;;
16922;SDS011;8578;50.938;13.556;2023-08-01T14:23:41;4.53;;;2.40;;
16922;SDS011;8578;50.938;13.556;2023-08-01T14:26:09;5.50;;;2.60;;
16922;SDS011;8578;50.938;13.556;2023-08-01T14:28:38;3.53;;;2.47;;
16922;SDS011;8578;50.938;13.556;2023-08-01T14:31:05;4.03;;;2.70;;
16922;SDS011;8578;50.938;13.556;2023-08-01T14:33:34;4.57;;;2.63;;
16922;SDS011;8578;50.938;13.556;2023-08-01T14:36:02;3.57;;;2.57;;
16922;SDS011;8578;50.938;13.556;2023-08-01T14:38:29;3.43;;;2.50;;
16922;SDS011;8578;50.938;13.556;2023-08-01T14:40:57;4.63;;;2.80;;
16922;SDS011;8578;50.938;13.556;2023-08-01T14:43:38;4.83;;;2.50;;
16922;SDS011;8578;50.938;13.556;2023-08-01T14:46:06;2.83;;;2.50;;
16922;SDS011;8578;50.938;13.556;2023-08-01T14:48:33;4.13;;;2.50;;
16922;SDS011;8578;50.938;13.556;2023-08-01T14:51:04;2.77;;;2.27;;
16922;SDS011;8578;50.938;13.556;2023-08-01T14:53:32;3.40;;;2.57;;
16922;SDS011;8578;50.938;13.556;2023-08-01T14:56:00;3.43;;;2.20;;